Time;durP1;ratioP1;P1;durP2;ratioP2;P2;SDS_P1;SDS_P2;PMS_P1;PMS_P2;Temp;Humidity;BMP_temperature;BMP_pressure;BME280_temperature;BME280_humidity;BME280_pressure;Samples;Min_cycle;Max_cycle;Signal;HPM_P1;HPM_P2
2024/01/04 00:00:31;;;;;;;5.07;0.40;;;;;;;-146.25;100.00;52623.69;2079604;28;33924;-69
2024/01/04 00:01:35;;;;;;;3.25;0.52;;;;;;;-146.25;100.00;52648.00;2079756;28;33231;-71
2024/01/04 00:02:37;;;;;;;2.17;0.30;;;;;;;-146.25;100.00;52627.75;2079897;28;35528;-71
2024/01/04 00:03:40;;;;;;;2.67;0.20;;;;;;;-146.25;100.00;52654.09;2080219;28;20042;-71
2024/01/04 00:04:42;;;;;;;4.18;0.30;;;;;;;-146.25;100.00;52645.97;2080108;28;34675;-71
2024/01/04 00:05:44;;;;;;;5.13;0.20;;;;;;;-146.25;100.00;52603.41;2079662;28;34690;-71
2024/01/04 00:06:45;;;;;;;5.50;0.40;;;;;;;-146.25;100.00;52631.78;2079279;28;32997;-71
2024/01/04 00:07:47;;;;;;;1.60;0.20;;;;;;;-146.25;100.00;52639.91;2079814;28;36207;-71
2024/01/04 00:08:49;;;;;;;4.00;0.30;;;;;;;-146.25;100.00;52641.94;2080548;28;20042;-71
2024/01/04 00:09:54;;;;;;;3.33;0.40;;;;;;;-146.25;100.00;52595.28;2079139;28;32665;-71
2024/01/04 00:10:56;;;;;;;3.58;0.30;;;;;;;-146.25;100.00;52635.84;2079769;28;34829;-72
2024/01/04 00:11:58;;;;;;;3.97;0.20;;;;;;;-146.25;100.00;52654.09;2079676;28;30659;-70
2024/01/04 00:13:03;;;;;;;2.92;0.22;;;;;;;-146.25;100.00;52633.81;2079848;28;35818;-71
2024/01/04 00:14:08;;;;;;;1.33;0.20;;;;;;;-146.25;100.00;52668.28;2079891;28;20892;-70
2024/01/04 00:15:10;;;;;;;4.35;0.22;;;;;;;-146.25;100.00;52611.50;2079344;28;37284;-71
2024/01/04 00:16:15;;;;;;;3.95;0.20;;;;;;;-146.25;100.00;52609.50;2079342;28;20081;-71
2024/01/04 00:17:16;;;;;;;1.02;0.20;;;;;;;-146.25;100.00;52641.94;2079348;28;28855;-70
2024/01/04 00:18:18;;;;;;;2.70;0.20;;;;;;;-146.25;100.00;52609.50;2079193;28;35523;-71
2024/01/04 00:19:20;;;;;;;3.28;0.30;;;;;;;-146.25;100.00;52627.75;2080470;28;20042;-70
2024/01/04 00:20:24;;;;;;;1.90;0.20;;;;;;;-146.25;100.00;52635.84;2079806;28;33857;-70
2024/01/04 00:21:26;;;;;;;3.95;0.30;;;;;;;-146.25;100.00;52656.13;2079840;28;29817;-70
2024/01/04 00:22:30;;;;;;;2.38;0.20;;;;;;;-146.25;100.00;52648.00;2079768;28;33486;-71
2024/01/04 00:23:32;;;;;;;1.92;0.20;;;;;;;-146.25;100.00;52684.50;2079710;28;36563;-70
2024/01/04 00:24:36;;;;;;;4.15;0.20;;;;;;;-146.25;100.00;52611.50;2080208;28;20042;-71
2024/01/04 00:25:38;;;;;;;3.25;0.13;;;;;;;-146.25;100.00;52631.78;2080351;28;20961;-70
2024/01/04 00:26:40;;;;;;;2.95;0.15;;;;;;;-146.25;100.00;52652.06;2080207;28;20088;-70
2024/01/04 00:27:42;;;;;;;4.18;0.20;;;;;;;-146.25;100.00;52619.63;2080598;28;20925;-70
2024/01/04 00:28:44;;;;;;;5.10;0.17;;;;;;;-146.25;100.00;52648.00;2080145;28;20907;-71
2024/01/04 00:29:46;;;;;;;1.67;0.10;;;;;;;-146.25;100.00;52662.22;2080447;28;24581;-71
2024/01/04 00:30:48;;;;;;;2.58;0.15;;;;;;;-146.25;100.00;52623.69;2079269;28;26927;-70
2024/01/04 00:31:50;;;;;;;2.05;0.20;;;;;;;-146.25;100.00;52627.75;2079958;28;20906;-70
2024/01/04 00:32:52;;;;;;;2.80;0.20;;;;;;;-146.25;100.00;52629.75;2087243;28;34034;-71
2024/01/04 00:33:54;;;;;;;2.65;0.17;;;;;;;-146.25;100.00;52621.66;2079494;28;20029;-70
2024/01/04 00:34:56;;;;;;;1.17;0.20;;;;;;;-146.25;100.00;52619.63;2079370;28;23253;-70
2024/01/04 00:35:58;;;;;;;3.08;0.20;;;;;;;-146.25;100.00;52639.91;2088070;28;20104;-70
2024/01/04 00:37:00;;;;;;;1.92;0.10;;;;;;;-146.25;100.00;52639.91;2079499;28;20115;-70
2024/01/04 00:38:04;;;;;;;4.18;0.20;;;;;;;-146.25;100.00;52613.53;2063258;28;33282;-70
2024/01/04 00:39:06;;;;;;;4.10;0.25;;;;;;;-146.25;100.00;52643.97;2071434;28;28606;-70
2024/01/04 00:40:09;;;;;;;7.15;0.22;;;;;;;-146.25;100.00;52611.50;2079040;28;28199;-71
2024/01/04 00:41:10;;;;;;;1.58;0.15;;;;;;;-146.25;100.00;52593.25;2079093;28;29203;-71
2024/01/04 00:42:12;;;;;;;3.00;0.20;;;;;;;-146.25;100.00;52641.94;2079969;28;20081;-70
2024/01/04 00:43:17;;;;;;;4.75;0.30;;;;;;;-146.25;100.00;52621.66;2087700;28;20854;-70
2024/01/04 00:44:22;;;;;;;1.77;0.20;;;;;;;-146.25;100.00;52639.91;2087634;28;20176;-70
2024/01/04 00:45:24;;;;;;;1.63;0.30;;;;;;;-146.25;100.00;52645.97;2080060;28;25338;-70
2024/01/04 00:46:26;;;;;;;2.85;0.20;;;;;;;-146.25;100.00;52603.41;2079454;28;30772;-70
2024/01/04 00:47:28;;;;;;;6.55;0.20;;;;;;;-146.25;100.00;52601.38;2079706;28;20026;-72
2024/01/04 00:48:29;;;;;;;4.05;0.40;;;;;;;-146.25;100.00;52650.03;2079433;28;33024;-71
2024/01/04 00:49:32;;;;;;;3.75;0.38;;;;;;;-146.25;100.00;52615.56;2086920;28;31200;-70
2024/01/04 00:50:34;;;;;;;4.20;0.30;;;;;;;-146.25;100.00;52621.66;2079497;28;28544;-70
2024/01/04 00:51:35;;;;;;;3.28;0.30;;;;;;;-146.25;100.00;52641.94;2071409;28;20057;-70
2024/01/04 00:52:38;;;;;;;2.13;0.38;;;;;;;-146.25;100.00;52652.06;2079829;28;20030;-70
2024/01/04 00:53:39;;;;;;;8.30;0.38;;;;;;;-146.25;100.00;52601.38;2079353;28;31269;-70
2024/01/04 00:54:41;;;;;;;2.67;0.30;;;;;;;-146.25;100.00;52650.03;2087089;28;27252;-69
2024/01/04 00:55:45;;;;;;;5.57;0.30;;;;;;;-146.25;100.00;52595.28;2087195;28;26746;-70
2024/01/04 00:56:47;;;;;;;4.45;0.30;;;;;;;-146.25;100.00;52603.41;2080507;28;20109;-70
2024/01/04 00:57:51;;;;;;;5.25;0.35;;;;;;;-146.25;100.00;52650.03;2079451;28;29241;-70
2024/01/04 00:58:53;;;;;;;2.53;0.30;;;;;;;-146.25;100.00;52637.88;2087429;28;27301;-70
2024/01/04 00:59:56;;;;;;;5.43;0.50;;;;;;;-146.25;100.00;52639.91;2078544;28;31970;-70
2024/01/04 01:01:03;;;;;;;2.33;0.40;;;;;;;-146.25;100.00;52613.53;2079606;28;31616;-71
2024/01/04 01:02:06;;;;;;;4.60;0.30;;;;;;;-146.25;100.00;52641.94;2080195;28;20056;-70
2024/01/04 01:03:11;;;;;;;3.38;0.30;;;;;;;-146.25;100.00;52625.72;2079590;28;31171;-70
2024/01/04 01:04:12;;;;;;;6.90;0.52;;;;;;;-146.25;100.00;52619.63;2087078;28;29249;-70
2024/01/04 01:05:14;;;;;;;2.50;0.20;;;;;;;-146.25;100.00;52662.22;2087716;28;20077;-71
2024/01/04 01:06:16;;;;;;;7.30;0.80;;;;;;;-146.25;100.00;52652.06;2087127;28;33857;-71
2024/01/04 01:07:18;;;;;;;8.18;0.40;;;;;;;-146.25;100.00;52650.03;2079576;28;32767;-70
2024/01/04 01:08:22;;;;;;;5.25;0.40;;;;;;;-146.25;100.00;52641.94;2080175;28;20038;-70
2024/01/04 01:09:24;;;;;;;3.80;0.35;;;;;;;-146.25;100.00;52648.00;2086796;28;38096;-71
2024/01/04 01:10:29;;;;;;;5.78;0.35;;;;;;;-146.25;100.00;52615.56;2086573;28;28357;-71
2024/01/04 01:11:31;;;;;;;2.40;0.30;;;;;;;-146.25;100.00;52635.84;2080160;28;20070;-70
2024/01/04 01:12:33;;;;;;;6.55;0.55;;;;;;;-146.25;100.00;52662.22;2079719;28;25510;-70
2024/01/04 01:13:35;;;;;;;3.80;0.45;;;;;;;-146.25;100.00;52625.72;2079586;28;23909;-71
2024/01/04 01:14:37;;;;;;;2.78;0.40;;;;;;;-146.25;100.00;52672.34;2079926;28;24502;-70
2024/01/04 01:15:39;;;;;;;4.13;0.40;;;;;;;-146.25;100.00;52648.00;2079618;28;31706;-70
2024/01/04 01:16:41;;;;;;;2.67;0.30;;;;;;;-146.25;100.00;52615.56;2086850;28;25191;-71
2024/01/04 01:17:43;;;;;;;3.58;0.43;;;;;;;-146.25;100.00;52619.63;2087670;28;20802;-71
2024/01/04 01:18:45;;;;;;;3.88;0.35;;;;;;;-146.25;100.00;52631.78;2079551;28;25769;-70
2024/01/04 01:19:50;;;;;;;2.15;0.20;;;;;;;-146.25;100.00;52629.75;2079516;28;20046;-70
2024/01/04 01:20:52;;;;;;;3.08;0.20;;;;;;;-146.25;100.00;52656.13;2079607;28;31938;-71
2024/01/04 01:21:53;;;;;;;3.70;0.30;;;;;;;-146.25;100.00;52650.03;2079842;28;26243;-71
2024/01/04 01:22:55;;;;;;;1.50;0.20;;;;;;;-146.25;100.00;52641.94;2086827;28;35139;-70
2024/01/04 01:23:57;;;;;;;1.85;0.20;;;;;;;-146.25;100.00;52603.41;2088082;28;20188;-70
2024/01/04 01:24:59;;;;;;;4.85;0.20;;;;;;;-146.25;100.00;52623.69;2079398;28;25901;-70
2024/01/04 01:26:03;;;;;;;4.63;0.20;;;;;;;-146.25;100.00;52668.28;2079743;28;26747;-71
2024/01/04 01:27:05;;;;;;;2.25;0.20;;;;;;;-146.25;100.00;52611.50;2087191;28;25820;-71
2024/01/04 01:28:07;;;;;;;5.97;0.30;;;;;;;-146.25;100.00;52670.31;2087571;28;20175;-70
2024/01/04 01:29:09;;;;;;;3.47;0.30;;;;;;;-146.25;100.00;52637.88;2087917;28;25456;-71
2024/01/04 01:30:11;;;;;;;3.38;0.20;;;;;;;-146.25;100.00;52635.84;2081599;28;20031;-71
2024/01/04 01:31:13;;;;;;;4.35;0.17;;;;;;;-146.25;100.00;52666.25;2080997;28;25807;-70
2024/01/04 01:32:15;;;;;;;4.40;0.40;;;;;;;-146.25;100.00;52650.03;2081686;28;20042;-71
2024/01/04 01:33:17;;;;;;;2.45;0.20;;;;;;;-146.25;100.00;52643.97;2081431;28;20818;-71
2024/01/04 01:34:19;;;;;;;3.03;0.30;;;;;;;-146.25;100.00;52656.13;2088377;28;34300;-71
2024/01/04 01:35:21;;;;;;;3.85;0.20;;;;;;;-146.25;100.00;52648.00;2080563;28;20081;-70
2024/01/04 01:36:23;;;;;;;3.88;0.20;;;;;;;-146.25;100.00;52637.88;2080748;28;29479;-71
2024/01/04 01:37:25;;;;;;;2.92;0.20;;;;;;;-146.25;100.00;52619.63;2088451;28;20935;-71
2024/01/04 01:38:30;;;;;;;1.63;0.20;;;;;;;-146.25;100.00;52668.28;2081318;28;20205;-71
2024/01/04 01:39:35;;;;;;;5.70;0.20;;;;;;;-146.25;100.00;52641.94;2080645;28;30592;-71
2024/01/04 01:40:37;;;;;;;2.13;0.30;;;;;;;-146.25;100.00;52603.41;2080221;28;25798;-70
2024/01/04 01:41:39;;;;;;;3.50;0.20;;;;;;;-146.25;100.00;52645.97;2080620;28;20784;-71
2024/01/04 01:42:49;;;;;;;3.67;0.20;;;;;;;-146.25;100.00;52688.56;2088974;28;20989;-71
2024/01/04 01:43:51;;;;;;;1.85;0.20;;;;;;;-146.25;100.00;52635.84;2087365;28;31916;-71
2024/01/04 01:44:55;;;;;;;0.82;0.10;;;;;;;-146.25;100.00;52627.75;2088507;28;25507;-70
2024/01/04 01:45:57;;;;;;;4.72;0.20;;;;;;;-146.25;100.00;52654.09;2080210;28;26184;-71
2024/01/04 01:46:59;;;;;;;5.65;0.40;;;;;;;-146.25;100.00;52648.00;2080544;28;20049;-70
2024/01/04 01:48:04;;;;;;;1.73;0.10;;;;;;;-146.25;100.00;52597.31;2080559;28;20049;-70
2024/01/04 01:49:08;;;;;;;6.82;0.10;;;;;;;-146.25;100.00;52656.13;2088917;28;25089;-70
2024/01/04 01:50:10;;;;;;;1.67;0.10;;;;;;;-146.25;100.00;52607.47;2087568;28;28703;-70
2024/01/04 01:51:13;;;;;;;1.48;0.15;;;;;;;-146.25;100.00;52639.91;2080788;28;20049;-70
2024/01/04 01:52:15;;;;;;;4.53;0.20;;;;;;;-146.25;100.00;52654.09;2088398;28;26614;-71
2024/01/04 01:53:17;;;;;;;0.98;0.10;;;;;;;-146.25;100.00;52650.03;2081408;28;20779;-70
2024/01/04 01:54:20;;;;;;;3.45;0.15;;;;;;;-146.25;100.00;52698.72;2088642;28;20038;-70
2024/01/04 01:55:27;;;;;;;1.27;0.10;;;;;;;-146.25;100.00;52587.19;2071470;28;20060;-70
2024/01/04 01:56:30;;;;;;;3.05;0.10;;;;;;;-146.25;100.00;52645.97;2073299;28;20883;-71
2024/01/04 01:57:33;;;;;;;5.32;0.10;;;;;;;-146.25;100.00;52662.22;2072379;28;24615;-70
2024/01/04 01:58:36;;;;;;;2.33;0.15;;;;;;;-146.25;100.00;52615.56;2080769;28;20046;-71
2024/01/04 01:59:38;;;;;;;3.50;0.10;;;;;;;-146.25;100.00;52650.03;2080382;28;20878;-70
2024/01/04 02:00:41;;;;;;;1.90;0.20;;;;;;;-146.25;100.00;52678.44;2080576;28;20899;-70
2024/01/04 02:01:43;;;;;;;5.50;0.20;;;;;;;-146.25;100.00;52643.97;2080682;28;20625;-70
2024/01/04 02:02:48;;;;;;;1.95;0.20;;;;;;;-146.25;100.00;52660.19;2072678;28;20081;-71
2024/01/04 02:03:50;;;;;;;2.42;0.10;;;;;;;-146.25;100.00;52668.28;2072557;28;30488;-70
2024/01/04 02:04:53;;;;;;;2.47;0.15;;;;;;;-146.25;100.00;52609.50;2080479;28;27004;-70
2024/01/04 02:05:54;;;;;;;1.17;0.10;;;;;;;-146.25;100.00;52631.78;2080226;28;26733;-70
2024/01/04 02:06:56;;;;;;;5.78;0.10;;;;;;;-146.25;100.00;52641.94;2079899;28;23495;-70
2024/01/04 02:07:59;;;;;;;7.90;0.20;;;;;;;-146.25;100.00;52664.22;2089015;28;20042;-70
2024/01/04 02:09:01;;;;;;;3.40;0.20;;;;;;;-146.25;100.00;52654.09;2088156;28;31383;-70
2024/01/04 02:10:03;;;;;;;3.17;0.20;;;;;;;-146.25;100.00;52635.84;2088090;28;28025;-68
2024/01/04 02:11:05;;;;;;;4.07;0.10;;;;;;;-146.25;100.00;52631.78;2080145;28;21230;-71
2024/01/04 02:12:13;;;;;;;2.38;0.20;;;;;;;-146.25;100.00;52676.41;2080439;28;20143;-69
2024/01/04 02:13:15;;;;;;;1.60;0.20;;;;;;;-146.25;100.00;52625.72;2080179;28;24266;-70
2024/01/04 02:14:17;;;;;;;2.38;0.10;;;;;;;-146.25;100.00;52643.97;2080500;28;20054;-70
2024/01/04 02:15:18;;;;;;;2.83;0.20;;;;;;;-146.25;100.00;52617.59;2080716;28;28209;-71
2024/01/04 02:16:21;;;;;;;2.70;0.20;;;;;;;-146.25;100.00;52623.69;2080298;28;20042;-70
2024/01/04 02:17:24;;;;;;;2.60;0.10;;;;;;;-146.25;100.00;52656.13;2080676;28;20042;-70
2024/01/04 02:18:26;;;;;;;3.08;0.10;;;;;;;-146.25;100.00;52643.97;2079691;28;23359;-71
2024/01/04 02:19:30;;;;;;;2.65;0.17;;;;;;;-146.25;100.00;52650.03;2080775;28;20141;-70
2024/01/04 02:20:32;;;;;;;3.20;0.20;;;;;;;-146.25;100.00;52680.47;2072127;28;20046;-69
2024/01/04 02:21:38;;;;;;;3.60;0.10;;;;;;;-146.25;100.00;52643.97;2073133;28;20046;-70
2024/01/04 02:22:44;;;;;;;3.00;0.40;;;;;;;-146.25;100.00;52656.13;2080679;28;29682;-70
2024/01/04 02:23:46;;;;;;;3.95;0.10;;;;;;;-146.25;100.00;52668.28;2088229;28;31343;-70
2024/01/04 02:24:48;;;;;;;4.57;0.13;;;;;;;-146.25;100.00;52652.06;2088135;28;31807;-69
2024/01/04 02:25:53;;;;;;;2.00;0.10;;;;;;;-146.25;100.00;52684.50;2080998;28;20033;-70
2024/01/04 02:26:55;;;;;;;1.15;0.10;;;;;;;-146.25;100.00;52670.31;2080339;28;29101;-70
2024/01/04 02:27:56;;;;;;;2.83;0.13;;;;;;;-146.25;100.00;52623.69;2080731;28;31681;-71
2024/01/04 02:29:01;;;;;;;3.20;0.10;;;;;;;-146.25;100.00;52656.13;2080733;28;26710;-70
2024/01/04 02:30:04;;;;;;;5.30;0.10;;;;;;;-146.25;100.00;52643.97;2081002;28;20144;-70
2024/01/04 02:31:06;;;;;;;1.90;0.10;;;;;;;-146.25;100.00;52633.81;2080931;28;20198;-70
2024/01/04 02:32:10;;;;;;;1.48;0.10;;;;;;;-146.25;100.00;52662.22;2080790;28;26046;-71
2024/01/04 02:33:12;;;;;;;0.85;0.10;;;;;;;-146.25;100.00;52658.16;2080492;28;29135;-70
2024/01/04 02:34:14;;;;;;;2.05;0.10;;;;;;;-146.25;100.00;52627.75;2080738;28;31448;-70
2024/01/04 02:35:16;;;;;;;2.05;0.10;;;;;;;-146.25;100.00;52613.53;2079616;28;31825;-69
2024/01/04 02:36:18;;;;;;;1.65;0.10;;;;;;;-146.25;100.00;52639.91;2080466;28;29278;-70
2024/01/04 02:37:20;;;;;;;2.03;0.10;;;;;;;-146.25;100.00;52664.22;2080475;28;29800;-70
2024/01/04 02:38:24;;;;;;;4.28;0.10;;;;;;;-146.25;100.00;52595.28;2081227;28;20045;-71
2024/01/04 02:39:25;;;;;;;0.75;0.00;;;;;;;-146.25;100.00;52631.78;2080812;28;20151;-71
2024/01/04 02:40:30;;;;;;;2.47;0.08;;;;;;;-146.25;100.00;52635.84;2080207;28;20045;-71
2024/01/04 02:41:32;;;;;;;3.08;0.10;;;;;;;-146.25;100.00;52623.69;2079839;28;20045;-70
2024/01/04 02:42:33;;;;;;;1.50;0.10;;;;;;;-146.25;100.00;52629.75;2080149;28;29452;-70
2024/01/04 02:43:35;;;;;;;2.15;0.10;;;;;;;-146.25;100.00;52619.63;2088003;28;29798;-70
2024/01/04 02:44:37;;;;;;;5.10;0.25;;;;;;;-146.25;100.00;52670.31;2079919;28;31022;-71
2024/01/04 02:45:38;;;;;;;0.80;0.08;;;;;;;-146.25;100.00;52635.84;2079562;28;32274;-70
2024/01/04 02:46:43;;;;;;;3.38;0.10;;;;;;;-146.25;100.00;52641.94;2080447;28;30934;-70
2024/01/04 02:47:45;;;;;;;3.05;0.20;;;;;;;-146.25;100.00;52648.00;2080826;28;24718;-70
2024/01/04 02:48:46;;;;;;;1.27;0.10;;;;;;;-146.25;100.00;52631.78;2079608;28;31399;-71
2024/01/04 02:49:50;;;;;;;1.45;0.10;;;;;;;-146.25;100.00;52694.66;2079655;28;34653;-70
2024/01/04 02:50:54;;;;;;;1.60;0.10;;;;;;;-146.25;100.00;52639.91;2088061;28;27169;-71
2024/01/04 02:51:57;;;;;;;2.97;0.10;;;;;;;-146.25;100.00;52623.69;2080276;28;20177;-69
2024/01/04 02:53:02;;;;;;;1.58;0.10;;;;;;;-146.25;100.00;52645.97;2072757;28;21022;-70
2024/01/04 02:54:04;;;;;;;1.38;0.10;;;;;;;-146.25;100.00;52672.34;2080281;28;20042;-70
2024/01/04 02:55:07;;;;;;;1.95;0.10;;;;;;;-146.25;100.00;52633.81;2087689;28;21016;-70
2024/01/04 02:56:08;;;;;;;1.63;0.10;;;;;;;-146.25;100.00;52635.84;2087620;28;32171;-70
2024/01/04 02:57:10;;;;;;;2.33;0.10;;;;;;;-146.25;100.00;52656.13;2080681;28;25215;-71
2024/01/04 02:58:12;;;;;;;1.50;0.10;;;;;;;-146.25;100.00;52625.72;2080104;28;29580;-70
2024/01/04 02:59:14;;;;;;;1.55;0.10;;;;;;;-146.25;100.00;52607.47;2080299;28;35951;-70
2024/01/04 03:00:17;;;;;;;1.52;0.20;;;;;;;-146.25;100.00;52686.53;2079016;28;32403;-70
2024/01/04 03:01:22;;;;;;;2.47;0.20;;;;;;;-146.25;100.00;52633.81;2080598;28;20046;-70
2024/01/04 03:02:26;;;;;;;2.40;0.10;;;;;;;-146.25;100.00;52684.50;2079389;28;37343;-70
2024/01/04 03:03:28;;;;;;;1.95;0.00;;;;;;;-146.25;100.00;52615.56;2079895;28;25755;-71
2024/01/04 03:04:29;;;;;;;1.92;0.10;;;;;;;-146.25;100.00;52643.97;2080037;28;33402;-70
2024/01/04 03:05:31;;;;;;;2.17;0.10;;;;;;;-146.25;100.00;52639.91;2080126;28;31629;-71
2024/01/04 03:06:34;;;;;;;3.78;0.10;;;;;;;-146.25;100.00;52666.25;2080072;28;35669;-70
2024/01/04 03:07:37;;;;;;;2.25;0.10;;;;;;;-146.25;100.00;52635.84;2079920;28;29885;-71
2024/01/04 03:08:40;;;;;;;1.73;0.03;;;;;;;-146.25;100.00;52643.97;2080396;28;32569;-69
2024/01/04 03:09:42;;;;;;;0.43;0.03;;;;;;;-146.25;100.00;52656.13;2079842;28;35498;-70
2024/01/04 03:10:44;;;;;;;1.15;0.03;;;;;;;-146.25;100.00;52654.09;2079908;28;32213;-70
2024/01/04 03:11:46;;;;;;;3.08;0.10;;;;;;;-146.25;100.00;52611.50;2080571;28;33164;-70
2024/01/04 03:12:50;;;;;;;3.03;0.10;;;;;;;-146.25;100.00;52627.75;2080674;28;20046;-71
2024/01/04 03:13:54;;;;;;;0.70;0.10;;;;;;;-146.25;100.00;52637.88;2080192;28;36001;-71
2024/01/04 03:14:58;;;;;;;1.65;0.10;;;;;;;-146.25;100.00;52672.34;2079622;28;33690;-70
2024/01/04 03:16:00;;;;;;;1.02;0.10;;;;;;;-146.25;100.00;52613.53;2079420;28;36200;-70
2024/01/04 03:17:02;;;;;;;1.77;0.10;;;;;;;-146.25;100.00;52627.75;2080133;28;29539;-70
2024/01/04 03:18:07;;;;;;;1.38;0.05;;;;;;;-146.25;100.00;52668.28;2080253;28;32592;-70
2024/01/04 03:19:09;;;;;;;1.60;0.10;;;;;;;-146.25;100.00;52635.84;2080120;28;33383;-70
2024/01/04 03:20:11;;;;;;;1.25;0.10;;;;;;;-146.25;100.00;52645.97;2088446;28;20891;-71
2024/01/04 03:21:14;;;;;;;1.38;0.10;;;;;;;-146.25;100.00;52635.84;2087246;28;34802;-70
2024/01/04 03:22:17;;;;;;;0.95;0.10;;;;;;;-146.25;100.00;52652.06;2079656;28;36991;-70
2024/01/04 03:23:19;;;;;;;2.35;0.10;;;;;;;-146.25;100.00;52672.34;2079244;28;33572;-70
2024/01/04 03:24:20;;;;;;;1.25;0.10;;;;;;;-146.25;100.00;52680.47;2080314;28;33798;-70
2024/01/04 03:25:22;;;;;;;1.50;0.10;;;;;;;-146.25;100.00;52652.06;2079322;28;36521;-69
2024/01/04 03:26:24;;;;;;;0.98;0.10;;;;;;;-146.25;100.00;52654.09;2080691;28;20148;-70
2024/01/04 03:27:26;;;;;;;1.95;0.10;;;;;;;-146.25;100.00;52635.84;2080183;28;20084;-70
2024/01/04 03:28:28;;;;;;;2.70;0.03;;;;;;;-146.25;100.00;52615.56;2080337;28;33099;-70
2024/01/04 03:29:30;;;;;;;3.63;0.10;;;;;;;-146.25;100.00;52641.94;2079793;28;36440;-71
2024/01/04 03:30:31;;;;;;;3.88;0.10;;;;;;;-146.25;100.00;52662.22;2080187;28;32734;-71
2024/01/04 03:31:33;;;;;;;1.48;0.10;;;;;;;-146.25;100.00;52631.78;2080068;28;33184;-70
2024/01/04 03:32:35;;;;;;;6.00;0.10;;;;;;;-146.25;100.00;52611.50;2079119;28;35393;-70
2024/01/04 03:33:37;;;;;;;3.67;0.10;;;;;;;-146.25;100.00;52648.00;2078972;28;33486;-70
2024/01/04 03:34:39;;;;;;;1.35;0.10;;;;;;;-146.25;100.00;52662.22;2079906;28;32630;-70
2024/01/04 03:35:43;;;;;;;2.78;0.20;;;;;;;-146.25;100.00;52658.16;2079618;28;31314;-70
2024/01/04 03:36:45;;;;;;;1.20;0.10;;;;;;;-146.25;100.00;52627.75;2079941;28;35031;-71
2024/01/04 03:37:46;;;;;;;0.90;0.10;;;;;;;-146.25;100.00;52631.78;2080219;28;36407;-69
2024/01/04 03:38:48;;;;;;;2.22;0.10;;;;;;;-146.25;100.00;52643.97;2080220;28;34316;-70
2024/01/04 03:39:50;;;;;;;3.13;0.10;;;;;;;-146.25;100.00;52660.19;2079834;28;33439;-70
2024/01/04 03:40:52;;;;;;;1.85;0.10;;;;;;;-146.25;100.00;52648.00;2079806;28;34221;-70
2024/01/04 03:41:53;;;;;;;1.83;0.20;;;;;;;-146.25;100.00;52619.63;2087667;28;33706;-70
2024/01/04 03:42:55;;;;;;;2.60;0.10;;;;;;;-146.25;100.00;52639.91;2087390;28;33995;-70
2024/01/04 03:43:58;;;;;;;1.02;0.10;;;;;;;-146.25;100.00;52668.28;2079905;28;20918;-69
2024/01/04 03:44:59;;;;;;;1.35;0.15;;;;;;;-146.25;100.00;52652.06;2079300;28;34275;-71
2024/01/04 03:46:08;;;;;;;2.88;0.13;;;;;;;-146.25;100.00;52619.63;2080643;28;20041;-70
2024/01/04 03:47:11;;;;;;;1.00;0.10;;;;;;;-146.25;100.00;52688.56;2078999;28;36641;-71
2024/01/04 03:48:13;;;;;;;3.83;0.10;;;;;;;-146.25;100.00;52577.03;2080167;28;20042;-70
2024/01/04 03:49:14;;;;;;;2.45;0.10;;;;;;;-146.25;100.00;52645.97;2079954;28;38124;-70
2024/01/04 03:50:16;;;;;;;1.35;0.10;;;;;;;-146.25;100.00;52627.75;2079838;28;31020;-70
2024/01/04 03:51:18;;;;;;;2.10;0.10;;;;;;;-146.25;100.00;52629.75;2080305;28;33315;-70
2024/01/04 03:52:20;;;;;;;0.65;0.10;;;;;;;-146.25;100.00;52652.06;2079758;28;33952;-70
2024/01/04 03:53:22;;;;;;;2.28;0.17;;;;;;;-146.25;100.00;52623.69;2079956;28;34303;-70
2024/01/04 03:54:26;;;;;;;1.75;0.20;;;;;;;-146.25;100.00;52654.09;2080072;28;20077;-70
2024/01/04 03:55:30;;;;;;;0.80;0.15;;;;;;;-146.25;100.00;52676.41;2080005;28;20931;-70
2024/01/04 03:56:32;;;;;;;2.35;0.20;;;;;;;-146.25;100.00;52652.06;2080488;28;20041;-70
2024/01/04 03:57:34;;;;;;;1.38;0.20;;;;;;;-146.25;100.00;52623.69;2079855;28;35464;-71
2024/01/04 03:58:37;;;;;;;1.58;0.10;;;;;;;-146.25;100.00;52652.06;2079987;28;34530;-71
2024/01/04 03:59:39;;;;;;;0.63;0.03;;;;;;;-146.25;100.00;52643.97;2080237;28;32504;-70
2024/01/04 04:00:43;;;;;;;3.95;0.10;;;;;;;-146.25;100.00;52597.31;2079617;28;38371;-70
2024/01/04 04:01:45;;;;;;;2.40;0.10;;;;;;;-146.25;100.00;52641.94;2080529;28;20834;-71
2024/01/04 04:02:47;;;;;;;1.42;0.10;;;;;;;-146.25;100.00;52619.63;2079469;28;36407;-69
2024/01/04 04:03:49;;;;;;;3.17;0.10;;;;;;;-146.25;100.00;52654.09;2079887;28;33594;-70
2024/01/04 04:04:51;;;;;;;0.95;0.10;;;;;;;-146.25;100.00;52629.75;2079742;28;33590;-69
2024/01/04 04:05:52;;;;;;;0.90;0.00;;;;;;;-146.25;100.00;52621.66;2079502;28;36832;-70
2024/01/04 04:06:54;;;;;;;0.65;0.00;;;;;;;-146.25;100.00;52654.09;2087105;28;34564;-70
2024/01/04 04:07:57;;;;;;;1.35;0.10;;;;;;;-146.25;100.00;52652.06;2079322;28;31461;-70
2024/01/04 04:08:59;;;;;;;0.47;0.00;;;;;;;-146.25;100.00;52684.50;2079197;28;37049;-70
2024/01/04 04:10:04;;;;;;;2.00;0.10;;;;;;;-146.25;100.00;52654.09;2079458;28;36472;-70
2024/01/04 04:11:16;;;;;;;0.88;0.00;;;;;;;-146.25;100.00;52599.34;2078883;28;34535;-69
2024/01/04 04:12:18;;;;;;;0.25;0.00;;;;;;;-146.25;100.00;52686.53;2080199;28;36451;-69
2024/01/04 04:13:20;;;;;;;2.47;0.10;;;;;;;-146.25;100.00;52607.47;2079612;28;33884;-70
2024/01/04 04:14:22;;;;;;;0.10;0.00;;;;;;;-146.25;100.00;52643.97;2079635;28;37792;-70
2024/01/04 04:15:23;;;;;;;1.15;0.10;;;;;;;-146.25;100.00;52652.06;2079618;28;35017;-70
2024/01/04 04:16:28;;;;;;;0.98;0.00;;;;;;;-146.25;100.00;52656.13;2079795;28;33515;-71
2024/01/04 04:17:29;;;;;;;0.35;0.00;;;;;;;-146.25;100.00;52631.78;2079559;28;37454;-70
2024/01/04 04:18:31;;;;;;;1.27;0.00;;;;;;;-146.25;100.00;52652.06;2079776;28;34402;-70
2024/01/04 04:19:33;;;;;;;1.52;0.00;;;;;;;-146.25;100.00;52637.88;2079551;28;38339;-70
2024/01/04 04:20:35;;;;;;;0.75;0.05;;;;;;;-146.25;100.00;52627.75;2088263;28;20026;-71
2024/01/04 04:21:37;;;;;;;1.33;0.03;;;;;;;-146.25;100.00;52629.75;2087308;28;37309;-69
2024/01/04 04:22:41;;;;;;;1.85;0.00;;;;;;;-146.25;100.00;52623.69;2079959;28;34252;-69
2024/01/04 04:23:49;;;;;;;0.60;0.08;;;;;;;-146.25;100.00;52629.75;2079401;28;33193;-70
2024/01/04 04:24:54;;;;;;;2.15;0.10;;;;;;;-146.25;100.00;52648.00;2079605;28;37987;-70
2024/01/04 04:25:56;;;;;;;0.20;0.00;;;;;;;-146.25;100.00;52635.84;2079969;28;20053;-71
2024/01/04 04:26:58;;;;;;;0.60;0.10;;;;;;;-146.25;100.00;52680.47;2079693;28;38319;-70
2024/01/04 04:27:59;;;;;;;0.43;0.08;;;;;;;-146.25;100.00;52668.28;2078985;28;34318;-70
2024/01/04 04:29:03;;;;;;;0.82;0.00;;;;;;;-146.25;100.00;52617.59;2080321;28;20038;-70
2024/01/04 04:30:06;;;;;;;1.60;0.00;;;;;;;-146.25;100.00;52633.81;2078604;28;36809;-70
2024/01/04 04:31:15;;;;;;;0.75;0.10;;;;;;;-146.25;100.00;52668.28;2079169;28;35720;-70
2024/01/04 04:32:18;;;;;;;1.13;0.10;;;;;;;-146.25;100.00;52639.91;2079230;28;34335;-69
2024/01/04 04:33:19;;;;;;;2.10;0.10;;;;;;;-146.25;100.00;52645.97;2079826;28;37607;-69
2024/01/04 04:34:21;;;;;;;2.08;0.10;;;;;;;-146.25;100.00;52637.88;2079554;28;28787;-69
2024/01/04 04:35:23;;;;;;;0.70;0.10;;;;;;;-146.25;100.00;52648.00;2079582;28;37078;-70
2024/01/04 04:36:25;;;;;;;3.55;0.10;;;;;;;-146.25;100.00;52652.06;2079495;28;36979;-70
2024/01/04 04:37:29;;;;;;;1.30;0.10;;;;;;;-146.25;100.00;52648.00;2079656;28;28831;-70
2024/01/04 04:38:31;;;;;;;0.85;0.10;;;;;;;-146.25;100.00;52633.81;2079241;28;38300;-70
2024/01/04 04:39:32;;;;;;;2.00;0.10;;;;;;;-146.25;100.00;52625.72;2080116;28;20164;-70
2024/01/04 04:40:34;;;;;;;1.10;0.10;;;;;;;-146.25;100.00;52627.75;2079276;28;35907;-70
2024/01/04 04:41:38;;;;;;;1.00;0.15;;;;;;;-146.25;100.00;52639.91;2079873;28;35064;-70
2024/01/04 04:42:41;;;;;;;1.08;0.10;;;;;;;-146.25;100.00;52660.19;2080415;28;20872;-70
2024/01/04 04:43:43;;;;;;;2.60;0.10;;;;;;;-146.25;100.00;52625.72;2080000;28;32869;-70
2024/01/04 04:44:45;;;;;;;3.35;0.10;;;;;;;-146.25;100.00;52617.59;2079313;28;34864;-69